createdAt,value
2022-08-18T00:00:48.096Z,26.66
2022-08-18T00:01:53.461Z,26.67
2022-08-18T00:03:01.302Z,26.65
2022-08-18T00:04:07.776Z,26.64
2022-08-18T00:05:29.896Z,26.63
2022-08-18T00:06:32.341Z,26.55
2022-08-18T00:07:33.962Z,26.52
2022-08-18T00:08:38.505Z,26.51
2022-08-18T00:09:40.480Z,26.52
2022-08-18T00:10:42.312Z,26.51
2022-08-18T00:11:44.219Z,26.50
2022-08-18T00:12:45.728Z,26.52
2022-08-18T00:13:47.208Z,26.52
2022-08-18T00:14:48.773Z,26.50
2022-08-18T00:15:50.389Z,26.51
2022-08-18T00:16:52.611Z,26.50
2022-08-18T00:17:54.180Z,26.51
2022-08-18T00:18:55.691Z,26.53
2022-08-18T00:19:57.261Z,26.55
2022-08-18T00:20:59.016Z,26.58
2022-08-18T00:22:00.572Z,26.59
2022-08-18T00:23:02.064Z,26.61
2022-08-18T00:24:04.000Z,26.63
2022-08-18T00:25:05.887Z,26.65
2022-08-18T00:26:07.407Z,26.65
2022-08-18T00:27:10.952Z,26.67
2022-08-18T00:28:13.975Z,26.69
2022-08-18T00:29:15.504Z,26.71
2022-08-18T00:30:18.305Z,26.72
2022-08-18T00:31:19.859Z,26.73
2022-08-18T00:32:22.972Z,26.73
2022-08-18T00:33:24.498Z,26.74
2022-08-18T00:34:26.051Z,26.74
2022-08-18T00:35:33.515Z,26.74
2022-08-18T00:36:35.443Z,26.75
2022-08-18T00:37:37.347Z,26.74
2022-08-18T00:38:38.987Z,26.75
2022-08-18T00:39:46.052Z,26.74
2022-08-18T00:40:49.703Z,26.75
2022-08-18T00:41:51.424Z,26.74
2022-08-18T00:42:54.118Z,26.75
2022-08-18T00:43:58.354Z,26.74
2022-08-18T00:45:00.996Z,26.76
2022-08-18T00:46:02.563Z,26.77
2022-08-18T00:47:04.140Z,26.76
2022-08-18T00:48:05.887Z,26.76
2022-08-18T00:49:07.487Z,26.76
2022-08-18T00:50:14.784Z,26.77
2022-08-18T00:51:37.277Z,26.77
2022-08-18T00:52:38.867Z,26.78
2022-08-18T00:53:49.624Z,26.78
2022-08-18T00:54:51.324Z,26.76
2022-08-18T00:55:54.384Z,26.77
2022-08-18T00:56:57.290Z,26.77
2022-08-18T00:58:01.798Z,26.76
2022-08-18T00:59:06.083Z,26.75
2022-08-18T01:00:11.999Z,26.74
2022-08-18T01:01:14.182Z,26.75
2022-08-18T01:02:36.056Z,26.74
2022-08-18T01:03:39.830Z,26.74
2022-08-18T01:04:55.506Z,26.73
2022-08-18T01:05:59.405Z,26.72
2022-08-18T01:07:02.159Z,26.72
2022-08-18T01:08:03.946Z,26.73
2022-08-18T01:09:06.056Z,26.74
2022-08-18T01:10:09.457Z,26.73
2022-08-18T01:11:10.984Z,26.73
2022-08-18T01:12:44.594Z,26.73
2022-08-18T01:13:35.612Z,26.74
2022-08-18T01:14:37.507Z,26.73
2022-08-18T01:15:39.027Z,26.73
2022-08-18T01:16:59.281Z,26.73
2022-08-18T01:18:20.442Z,26.73
2022-08-18T01:19:40.501Z,26.75
2022-08-18T01:21:02.189Z,26.75
2022-08-18T01:22:33.192Z,26.75
2022-08-18T01:23:34.902Z,26.74
2022-08-18T01:24:55.039Z,26.74
2022-08-18T01:26:04.262Z,26.75
2022-08-18T01:27:05.824Z,26.77
2022-08-18T01:28:07.375Z,26.76
2022-08-18T01:29:18.562Z,26.77
2022-08-18T01:30:25.595Z,26.77
2022-08-18T01:31:54.572Z,26.76
2022-08-18T01:32:57.154Z,26.76
2022-08-18T01:33:59.446Z,26.77
2022-08-18T01:35:00.978Z,26.78
2022-08-18T01:36:14.490Z,26.77
2022-08-18T01:37:16.877Z,26.77
2022-08-18T01:38:19.091Z,26.78
2022-08-18T01:41:21.187Z,26.78
2022-08-18T01:41:24.575Z,26.78
2022-08-18T01:42:04.804Z,26.77
2022-08-18T01:43:06.410Z,26.79
2022-08-18T01:44:11.203Z,26.79
2022-08-18T01:45:13.664Z,26.79
2022-08-18T01:46:20.006Z,26.78
2022-08-18T01:47:21.509Z,26.79
2022-08-18T01:48:23.018Z,26.79
2022-08-18T01:49:24.574Z,26.79
2022-08-18T01:50:26.128Z,26.80
2022-08-18T01:51:39.944Z,26.81
2022-08-18T01:52:42.499Z,26.81
2022-08-18T01:53:45.055Z,26.81
2022-08-18T01:54:47.354Z,26.80
2022-08-18T01:55:50.019Z,26.81
2022-08-18T01:56:53.482Z,26.81
2022-08-18T01:57:55.392Z,26.80
2022-08-18T01:58:56.950Z,26.81
2022-08-18T02:00:01.074Z,26.81
2022-08-18T02:01:02.861Z,26.80
2022-08-18T02:02:04.508Z,26.81
2022-08-18T02:03:08.187Z,26.80
2022-08-18T02:04:33.791Z,26.80
2022-08-18T02:05:32.526Z,26.79
2022-08-18T02:06:34.071Z,26.81
2022-08-18T02:07:36.368Z,26.79
2022-08-18T02:08:38.307Z,26.77
2022-08-18T02:09:43.855Z,26.74
2022-08-18T02:10:45.380Z,26.69
2022-08-18T02:11:47.236Z,26.64
2022-08-18T02:12:50.061Z,26.61
2022-08-18T02:13:51.553Z,26.58
2022-08-18T02:14:53.150Z,26.56
2022-08-18T02:15:54.665Z,26.45
2022-08-18T02:17:01.532Z,26.31
2022-08-18T02:18:04.433Z,26.32
2022-08-18T02:19:05.920Z,26.33
2022-08-18T02:20:08.666Z,26.34
2022-08-18T02:21:11.346Z,26.32
2022-08-18T02:22:14.408Z,26.30
2022-08-18T02:23:15.991Z,26.29
2022-08-18T02:24:17.470Z,26.29
2022-08-18T02:25:19.191Z,26.27
2022-08-18T02:26:20.996Z,26.23
2022-08-18T02:27:22.490Z,26.20
2022-08-18T02:28:27.482Z,26.18
2022-08-18T02:29:32.059Z,26.16
2022-08-18T02:30:34.014Z,26.13
2022-08-18T02:31:35.575Z,26.10
2022-08-18T02:32:37.185Z,26.06
2022-08-18T02:33:38.725Z,26.02
2022-08-18T02:34:42.501Z,26.02
2022-08-18T02:35:46.205Z,26.01
2022-08-18T02:36:47.709Z,26.00
2022-08-18T02:37:49.247Z,25.98
2022-08-18T02:38:58.737Z,26.00
2022-08-18T02:40:01.626Z,25.98
2022-08-18T02:41:03.726Z,25.98
2022-08-18T02:42:05.735Z,25.94
2022-08-18T02:43:09.112Z,25.95
2022-08-18T02:44:10.635Z,25.94
2022-08-18T02:45:13.280Z,25.95
2022-08-18T02:46:14.863Z,25.96
2022-08-18T02:47:20.560Z,25.97
2022-08-18T02:48:37.230Z,25.98
2022-08-18T02:49:38.829Z,25.99
2022-08-18T02:50:47.221Z,25.99
2022-08-18T02:51:49.662Z,26.00
2022-08-18T02:52:51.175Z,26.01
2022-08-18T02:53:53.670Z,26.01
2022-08-18T02:54:55.635Z,26.01
2022-08-18T02:56:05.272Z,25.99
2022-08-18T02:57:08.135Z,26.00
2022-08-18T02:58:09.725Z,26.03
2022-08-18T02:59:12.139Z,26.01
2022-08-18T03:00:15.702Z,26.02
2022-08-18T03:01:21.672Z,26.03
2022-08-18T03:02:23.225Z,26.02
2022-08-18T03:03:24.921Z,26.00
2022-08-18T03:04:29.668Z,26.02
2022-08-18T03:05:31.582Z,26.02
2022-08-18T03:06:33.331Z,26.02
2022-08-18T03:07:34.850Z,26.02
2022-08-18T03:08:40.166Z,26.02
2022-08-18T03:09:41.872Z,26.02
2022-08-18T03:10:43.385Z,26.01
2022-08-18T03:11:44.956Z,26.01
2022-08-18T03:12:46.641Z,26.01
2022-08-18T03:13:48.287Z,26.00
2022-08-18T03:14:50.196Z,26.00
2022-08-18T03:15:56.647Z,26.00
2022-08-18T03:16:58.738Z,25.99
2022-08-18T03:18:01.286Z,25.98
2022-08-18T03:19:03.015Z,25.99
2022-08-18T03:20:04.766Z,25.97
2022-08-18T03:21:07.752Z,25.96
2022-08-18T03:22:24.325Z,25.96
2022-08-18T03:23:30.500Z,25.91
2022-08-18T03:24:32.603Z,25.91
2022-08-18T03:25:34.341Z,25.89
2022-08-18T03:26:36.250Z,25.88
2022-08-18T03:27:37.806Z,25.88
2022-08-18T03:28:40.822Z,25.87
2022-08-18T03:29:42.305Z,25.88
2022-08-18T03:30:43.875Z,25.87
2022-08-18T03:31:45.533Z,25.85
2022-08-18T03:32:47.480Z,25.82
2022-08-18T03:33:49.734Z,25.80
2022-08-18T03:34:51.319Z,25.78
2022-08-18T03:35:52.826Z,25.76
2022-08-18T03:36:54.398Z,25.76
2022-08-18T03:37:59.181Z,25.76
2022-08-18T03:39:07.956Z,25.75
2022-08-18T03:40:11.052Z,25.74
2022-08-18T03:41:13.603Z,25.75
2022-08-18T03:42:15.133Z,25.76
2022-08-18T03:43:49.776Z,25.73
2022-08-18T03:44:38.333Z,25.73
2022-08-18T03:45:39.963Z,25.67
2022-08-18T03:46:42.479Z,25.63
2022-08-18T03:47:45.926Z,25.61
2022-08-18T03:48:47.884Z,25.60
2022-08-18T03:49:49.476Z,25.60
2022-08-18T03:50:51.016Z,25.60
2022-08-18T03:51:52.501Z,25.60
2022-08-18T03:52:54.448Z,25.59
2022-08-18T03:53:56.633Z,25.60
2022-08-18T03:54:58.200Z,25.60
2022-08-18T03:55:59.703Z,25.61
2022-08-18T03:57:01.274Z,25.60
2022-08-18T03:58:03.423Z,25.58
2022-08-18T03:59:08.345Z,25.58
2022-08-18T04:00:10.197Z,25.56
2022-08-18T04:01:13.287Z,25.57
2022-08-18T04:02:28.431Z,25.56
2022-08-18T04:03:29.963Z,25.55
2022-08-18T04:04:31.535Z,25.56
2022-08-18T04:05:35.256Z,25.56
2022-08-18T04:07:04.676Z,25.55
2022-08-18T04:08:07.006Z,25.52
2022-08-18T04:09:09.867Z,25.44
2022-08-18T04:10:19.106Z,25.51
2022-08-18T04:11:21.286Z,25.52
2022-08-18T04:12:22.922Z,25.52
2022-08-18T04:13:24.461Z,25.55
2022-08-18T04:14:27.447Z,25.55
2022-08-18T04:15:29.048Z,25.55
2022-08-18T04:16:32.346Z,25.55
2022-08-18T04:17:33.844Z,25.50
2022-08-18T04:18:35.394Z,25.48
2022-08-18T04:19:37.950Z,25.49
2022-08-18T04:20:59.332Z,25.49
2022-08-18T04:22:03.055Z,25.48
2022-08-18T04:23:04.544Z,25.38
2022-08-18T04:24:07.720Z,25.35
2022-08-18T04:25:09.439Z,25.35
2022-08-18T04:26:11.512Z,25.33
2022-08-18T04:27:21.099Z,25.33
2022-08-18T04:28:22.592Z,25.34
2022-08-18T04:29:24.171Z,25.32
2022-08-18T04:30:25.675Z,25.32
2022-08-18T04:31:27.208Z,25.32
2022-08-18T04:32:30.441Z,25.29
2022-08-18T04:33:32.105Z,25.28
2022-08-18T04:34:33.711Z,25.26
2022-08-18T04:35:35.227Z,25.22
2022-08-18T04:36:36.897Z,25.12
2022-08-18T04:37:39.827Z,25.18
2022-08-18T04:38:43.355Z,25.16
2022-08-18T04:39:45.629Z,25.16
2022-08-18T04:40:47.434Z,25.18
2022-08-18T04:41:49.029Z,25.19
2022-08-18T04:42:50.508Z,25.18
2022-08-18T04:43:52.631Z,25.18
2022-08-18T04:44:54.796Z,25.20
2022-08-18T04:46:01.657Z,25.21
2022-08-18T04:47:03.440Z,25.22
2022-08-18T04:48:05.000Z,25.22
2022-08-18T04:49:06.779Z,25.23
2022-08-18T04:50:08.472Z,25.24
2022-08-18T04:51:10.952Z,25.23
2022-08-18T04:52:39.944Z,25.25
2022-08-18T04:53:45.567Z,25.24
2022-08-18T04:54:47.117Z,25.25
2022-08-18T04:55:49.302Z,25.24
2022-08-18T04:56:50.892Z,25.25
2022-08-18T04:57:52.530Z,25.24
2022-08-18T04:58:54.814Z,25.25
2022-08-18T04:59:58.264Z,25.25
2022-08-18T05:01:00.688Z,25.25
2022-08-18T05:02:05.748Z,25.26
2022-08-18T05:03:07.317Z,25.25
2022-08-18T05:04:09.095Z,25.27
2022-08-18T05:05:11.206Z,25.26
2022-08-18T05:06:12.875Z,25.27
2022-08-18T05:07:15.077Z,25.28
2022-08-18T05:08:16.660Z,25.28
2022-08-18T05:09:23.103Z,25.28
2022-08-18T05:10:25.038Z,25.28
2022-08-18T05:11:29.448Z,25.29
2022-08-18T05:12:31.038Z,25.27
2022-08-18T05:13:32.608Z,25.27
2022-08-18T05:14:34.634Z,25.27
2022-08-18T05:15:59.420Z,25.27
2022-08-18T05:17:02.538Z,25.27
2022-08-18T05:18:05.401Z,25.27
2022-08-18T05:19:08.909Z,25.26
2022-08-18T05:20:11.258Z,25.28
2022-08-18T05:21:16.374Z,25.28
2022-08-18T05:22:24.274Z,25.28
2022-08-18T05:23:31.858Z,25.28
2022-08-18T05:24:37.114Z,25.28
2022-08-18T05:25:40.125Z,25.28
2022-08-18T05:26:41.728Z,25.27
2022-08-18T05:27:43.841Z,25.27
2022-08-18T05:28:45.875Z,25.26
2022-08-18T05:29:51.456Z,25.26
2022-08-18T05:30:54.087Z,25.26
2022-08-18T05:31:57.847Z,25.24
2022-08-18T05:33:03.372Z,25.24
2022-08-18T05:34:05.785Z,25.24
2022-08-18T05:35:10.460Z,25.24
2022-08-18T05:36:24.233Z,25.23
2022-08-18T05:37:35.786Z,25.22
2022-08-18T05:38:55.915Z,25.20
2022-08-18T05:39:58.717Z,25.20
2022-08-18T05:41:04.989Z,25.20
2022-08-18T05:42:17.770Z,25.19
2022-08-18T05:43:19.293Z,25.19
2022-08-18T05:44:31.818Z,25.21
2022-08-18T05:45:34.743Z,25.20
2022-08-18T05:46:52.849Z,25.20
2022-08-18T05:47:57.564Z,25.20
2022-08-18T05:48:59.080Z,25.20
2022-08-18T05:50:05.307Z,25.21
2022-08-18T05:51:10.853Z,25.21
2022-08-18T05:52:32.652Z,25.21
2022-08-18T05:53:53.036Z,25.23
2022-08-18T05:55:14.731Z,25.23
2022-08-18T05:56:34.898Z,25.23
2022-08-18T05:57:51.445Z,25.23
2022-08-18T05:58:55.334Z,25.23
2022-08-18T05:59:56.931Z,25.25
2022-08-18T06:01:08.950Z,25.23
2022-08-18T06:02:16.081Z,25.23
2022-08-18T06:03:19.726Z,25.22
2022-08-18T06:04:29.577Z,25.20
2022-08-18T06:05:51.327Z,25.20
2022-08-18T06:06:52.814Z,25.21
2022-08-18T06:07:55.475Z,25.21
2022-08-18T06:09:15.861Z,25.22
2022-08-18T06:10:17.458Z,25.22
2022-08-18T06:11:22.785Z,25.23
2022-08-18T06:12:26.600Z,25.23
2022-08-18T06:13:28.169Z,25.23
2022-08-18T06:14:29.679Z,25.24
2022-08-18T06:15:33.962Z,25.24
2022-08-18T06:16:45.261Z,25.23
2022-08-18T06:17:53.127Z,25.24
2022-08-18T06:18:59.867Z,25.24
2022-08-18T06:20:10.219Z,25.24
2022-08-18T06:21:38.308Z,25.24
2022-08-18T06:22:52.737Z,25.23
2022-08-18T06:24:03.338Z,25.23
2022-08-18T06:25:18.472Z,25.23
2022-08-18T06:26:29.243Z,25.23
2022-08-18T06:27:39.919Z,25.23
2022-08-18T06:28:58.432Z,25.24
2022-08-18T06:30:05.012Z,25.22
2022-08-18T06:31:22.112Z,25.23
2022-08-18T06:32:35.003Z,25.23
2022-08-18T06:33:50.361Z,25.26
2022-08-18T06:34:51.890Z,25.25
2022-08-18T06:36:02.627Z,25.25
2022-08-18T06:37:09.535Z,25.25
2022-08-18T06:38:45.244Z,25.26
2022-08-18T06:39:50.987Z,25.27
2022-08-18T06:41:00.400Z,25.27
2022-08-18T06:42:04.730Z,25.27
2022-08-18T06:43:07.377Z,25.28
2022-08-18T06:44:12.980Z,25.28
2022-08-18T06:45:18.247Z,25.29
2022-08-18T06:46:22.008Z,25.27
2022-08-18T06:47:29.475Z,25.28
2022-08-18T06:48:37.769Z,25.28
2022-08-18T06:49:42.333Z,25.28
2022-08-18T06:50:48.127Z,25.27
2022-08-18T06:51:49.760Z,25.29
2022-08-18T06:52:55.337Z,25.28
2022-08-18T06:53:59.739Z,25.29
2022-08-18T06:55:02.589Z,25.30
2022-08-18T06:56:26.332Z,25.33
2022-08-18T06:57:28.314Z,25.33
2022-08-18T06:58:30.588Z,25.35
2022-08-18T06:59:33.276Z,25.35
2022-08-18T07:00:35.438Z,25.35
2022-08-18T07:01:38.773Z,25.35
2022-08-18T07:02:42.389Z,25.35
2022-08-18T07:03:44.990Z,25.36
2022-08-18T07:05:03.052Z,25.35
2022-08-18T07:06:04.656Z,25.37
2022-08-18T07:07:39.715Z,25.36
2022-08-18T07:08:45.486Z,25.38
2022-08-18T07:09:47.333Z,25.37
2022-08-18T07:10:52.451Z,25.39
2022-08-18T07:12:01.497Z,25.39
2022-08-18T07:13:14.927Z,25.40
2022-08-18T07:14:21.415Z,25.40
2022-08-18T07:15:23.418Z,25.41
2022-08-18T07:16:54.904Z,25.42
2022-08-18T07:17:53.434Z,25.44
2022-08-18T07:18:55.609Z,25.41
2022-08-18T07:19:58.355Z,25.43
2022-08-18T07:21:00.622Z,25.42
2022-08-18T07:22:05.396Z,25.43
2022-08-18T07:23:08.094Z,25.43
2022-08-18T07:24:25.102Z,25.43
2022-08-18T07:25:32.044Z,25.42
2022-08-18T07:26:52.231Z,25.43
2022-08-18T07:27:56.932Z,25.44
2022-08-18T07:28:58.668Z,25.43
2022-08-18T07:30:04.356Z,25.42
2022-08-18T07:31:16.884Z,25.44
2022-08-18T07:32:21.504Z,25.45
2022-08-18T07:33:24.088Z,25.45
2022-08-18T07:34:28.355Z,25.46
2022-08-18T07:35:36.323Z,25.47
2022-08-18T07:37:07.806Z,25.48
2022-08-18T07:38:40.908Z,25.48
2022-08-18T07:39:39.247Z,25.49
2022-08-18T07:40:56.366Z,25.48
2022-08-18T07:42:09.479Z,25.48
2022-08-18T07:43:13.901Z,25.49
2022-08-18T07:44:23.649Z,25.49
2022-08-18T07:45:28.849Z,25.48
2022-08-18T07:46:30.475Z,25.48
2022-08-18T07:47:32.879Z,25.47
2022-08-18T07:48:38.568Z,25.48
2022-08-18T07:49:59.640Z,25.47
2022-08-18T07:51:11.155Z,25.46
2022-08-18T07:52:36.448Z,25.48
2022-08-18T07:53:54.441Z,25.48
2022-08-18T07:54:57.517Z,25.48
2022-08-18T07:56:00.735Z,25.49
2022-08-18T07:57:05.295Z,25.49
2022-08-18T07:58:06.787Z,25.50
2022-08-18T07:59:20.510Z,25.48
2022-08-18T08:00:41.060Z,25.50
2022-08-18T08:01:53.646Z,25.49
2022-08-18T08:02:55.386Z,25.51
2022-08-18T08:03:59.732Z,25.52
2022-08-18T08:05:10.400Z,25.53
2022-08-18T08:06:15.050Z,25.56
2022-08-18T08:07:46.114Z,25.56
2022-08-18T08:09:06.579Z,25.57
2022-08-18T08:10:26.044Z,25.57
2022-08-18T08:11:39.642Z,25.58
2022-08-18T08:12:45.642Z,25.59
2022-08-18T08:13:56.102Z,25.60
2022-08-18T08:15:01.338Z,25.60
2022-08-18T08:16:04.256Z,25.62
2022-08-18T08:17:07.811Z,25.63
2022-08-18T08:18:24.305Z,25.63
2022-08-18T08:20:00.132Z,25.63
2022-08-18T08:21:13.752Z,25.66
2022-08-18T08:22:15.204Z,25.65
2022-08-18T08:23:19.796Z,25.66
2022-08-18T08:24:26.355Z,25.68
2022-08-18T08:25:49.018Z,25.68
2022-08-18T08:27:26.090Z,25.69
2022-08-18T08:28:31.203Z,25.70
2022-08-18T08:29:38.383Z,25.73
2022-08-18T08:30:55.281Z,25.74
2022-08-18T08:31:57.519Z,25.75
2022-08-18T08:33:05.082Z,25.76
2022-08-18T08:34:12.611Z,25.77
2022-08-18T08:35:47.358Z,25.77
2022-08-18T08:36:38.981Z,25.79
2022-08-18T08:37:44.871Z,25.79
2022-08-18T08:39:07.830Z,25.81
2022-08-18T08:40:24.553Z,25.82
2022-08-18T08:41:40.194Z,25.82
2022-08-18T08:42:41.707Z,25.83
2022-08-18T08:43:48.185Z,25.83
2022-08-18T08:44:59.320Z,25.83
2022-08-18T08:46:10.248Z,25.83
2022-08-18T08:47:15.443Z,25.84
2022-08-18T08:48:25.515Z,25.84
2022-08-18T08:49:59.035Z,25.85
2022-08-18T08:51:23.550Z,25.83
2022-08-18T08:52:40.152Z,25.83
2022-08-18T08:54:07.832Z,25.85
2022-08-18T08:55:18.395Z,25.84
2022-08-18T08:56:20.742Z,25.83
2022-08-18T08:57:22.633Z,25.84
2022-08-18T08:58:26.425Z,25.83
2022-08-18T08:59:28.009Z,25.82
2022-08-18T09:00:29.566Z,25.85
2022-08-18T09:01:36.958Z,25.85
2022-08-18T09:02:48.155Z,25.86
2022-08-18T09:03:53.484Z,25.85
2022-08-18T09:05:08.352Z,25.86
2022-08-18T09:06:26.224Z,25.86
2022-08-18T09:07:40.211Z,25.87
2022-08-18T09:08:46.135Z,25.88
2022-08-18T09:09:54.226Z,25.88
2022-08-18T09:11:07.389Z,25.89
2022-08-18T09:12:12.121Z,25.90
2022-08-18T09:13:33.947Z,25.89
2022-08-18T09:14:51.665Z,25.91
2022-08-18T09:15:55.799Z,25.91
2022-08-18T09:17:15.586Z,25.91
2022-08-18T09:18:34.156Z,25.92
2022-08-18T09:19:54.727Z,25.90
2022-08-18T09:21:16.511Z,25.92
2022-08-18T09:22:27.309Z,25.91
2022-08-18T09:23:49.271Z,25.90
2022-08-18T09:24:51.431Z,25.87
2022-08-18T09:25:58.484Z,25.88
2022-08-18T09:27:02.779Z,25.87
2022-08-18T09:28:11.860Z,25.88
2022-08-18T09:29:18.315Z,25.88
2022-08-18T09:30:38.510Z,25.89
2022-08-18T09:31:40.094Z,25.89
2022-08-18T09:32:45.122Z,25.89
2022-08-18T09:35:31.718Z,25.90
2022-08-18T09:36:33.237Z,25.90
2022-08-18T09:38:12.980Z,25.90
2022-08-18T09:41:34.357Z,25.91
2022-08-18T09:42:48.356Z,25.92
2022-08-18T09:44:21.394Z,25.93
2022-08-18T09:45:40.769Z,25.94
2022-08-18T09:46:42.312Z,25.94
2022-08-18T09:47:54.282Z,25.95
2022-08-18T09:49:28.001Z,25.95
2022-08-18T09:50:36.046Z,25.96
2022-08-18T09:51:40.220Z,25.97
2022-08-18T09:52:42.826Z,25.98
2022-08-18T09:53:46.042Z,25.99
2022-08-18T09:54:53.380Z,25.99
2022-08-18T09:56:00.762Z,26.01
2022-08-18T09:57:09.332Z,26.04
2022-08-18T09:58:35.032Z,26.05
2022-08-18T09:59:36.696Z,26.05
2022-08-18T10:00:38.977Z,26.07
2022-08-18T10:01:41.315Z,26.08
2022-08-18T10:02:45.668Z,26.10
2022-08-18T10:04:10.028Z,26.10
2022-08-18T10:05:20.072Z,26.10
2022-08-18T10:06:26.861Z,26.11
2022-08-18T10:07:35.357Z,26.10
2022-08-18T10:09:01.971Z,26.13
2022-08-18T10:10:59.713Z,26.14
2022-08-18T10:12:16.932Z,26.15
2022-08-18T10:13:25.525Z,26.15
2022-08-18T10:14:33.272Z,26.18
2022-08-18T10:15:45.894Z,26.20
2022-08-18T10:18:38.093Z,26.23
2022-08-18T10:19:53.527Z,26.25
2022-08-18T10:21:27.475Z,26.26
2022-08-18T10:22:43.481Z,26.28
2022-08-18T10:24:03.172Z,26.30
2022-08-18T10:25:22.648Z,26.31
2022-08-18T10:26:31.451Z,26.32
2022-08-18T10:27:44.569Z,26.32
2022-08-18T10:29:18.612Z,26.33
2022-08-18T10:30:34.446Z,26.34
2022-08-18T10:31:57.638Z,26.34
2022-08-18T10:33:00.986Z,26.34
2022-08-18T10:34:08.512Z,26.36
2022-08-18T10:35:39.169Z,26.37
2022-08-18T10:36:49.895Z,26.37
2022-08-18T10:37:51.405Z,26.39
2022-08-18T10:38:53.532Z,26.40
2022-08-18T10:39:57.936Z,26.40
2022-08-18T10:41:10.170Z,26.42
2022-08-18T10:42:22.715Z,26.42
2022-08-18T10:44:53.279Z,26.45
2022-08-18T10:46:24.541Z,26.46
2022-08-18T10:47:20.586Z,26.44
2022-08-18T10:48:30.828Z,26.43
2022-08-18T10:49:33.384Z,26.42
2022-08-18T10:50:53.153Z,26.43
2022-08-18T10:52:06.677Z,26.44
2022-08-18T10:54:50.992Z,26.41
2022-08-18T10:56:12.112Z,26.41
2022-08-18T10:57:16.796Z,26.39
2022-08-18T10:58:18.309Z,26.37
2022-08-18T10:59:19.804Z,26.37
2022-08-18T11:00:49.421Z,26.37
2022-08-18T11:02:02.551Z,26.30
2022-08-18T11:03:39.926Z,26.27
2022-08-18T11:04:33.977Z,26.18
2022-08-18T11:05:36.411Z,26.15
2022-08-18T11:06:41.973Z,26.15
2022-08-18T11:07:46.787Z,26.11
2022-08-18T11:08:57.558Z,26.11
2022-08-18T11:11:34.475Z,26.18
2022-08-18T11:13:07.338Z,26.21
2022-08-18T11:14:30.120Z,26.23
2022-08-18T11:15:45.189Z,26.27
2022-08-18T11:17:00.265Z,26.32
2022-08-18T11:18:05.534Z,26.37
2022-08-18T11:19:16.811Z,26.44
2022-08-18T11:20:28.143Z,26.49
2022-08-18T11:21:32.047Z,26.53
2022-08-18T11:22:34.455Z,26.56
2022-08-18T11:23:37.254Z,26.59
2022-08-18T11:24:46.564Z,26.64
2022-08-18T11:25:48.252Z,26.69
2022-08-18T11:26:53.608Z,26.74
2022-08-18T11:27:56.465Z,26.78
2022-08-18T11:28:58.006Z,26.80
2022-08-18T11:30:00.195Z,26.82
2022-08-18T11:31:01.695Z,26.86
2022-08-18T11:32:11.035Z,26.89
2022-08-18T11:33:23.227Z,26.93
2022-08-18T11:34:28.528Z,26.97
2022-08-18T11:35:31.583Z,26.98
2022-08-18T11:36:34.424Z,27.04
2022-08-18T11:39:03.229Z,27.11
2022-08-18T11:40:07.034Z,27.14
2022-08-18T11:41:19.111Z,27.17
2022-08-18T11:42:26.503Z,27.20
2022-08-18T11:43:29.904Z,27.25
2022-08-18T11:44:40.785Z,27.28
2022-08-18T11:45:46.621Z,27.32
2022-08-18T11:46:52.011Z,27.33
2022-08-18T11:48:00.988Z,27.36
2022-08-18T11:49:15.584Z,27.39
2022-08-18T11:50:19.580Z,27.41
2022-08-18T11:51:23.669Z,27.43
2022-08-18T11:52:32.879Z,27.45
2022-08-18T11:53:37.203Z,27.48
2022-08-18T11:54:50.929Z,27.49
2022-08-18T11:56:30.838Z,27.50
2022-08-18T11:57:56.233Z,27.51
2022-08-18T11:59:08.146Z,27.54
2022-08-18T12:00:28.721Z,27.55
2022-08-18T12:03:08.471Z,27.59
2022-08-18T12:04:13.461Z,27.60
2022-08-18T12:05:14.954Z,27.61
2022-08-18T12:06:26.846Z,27.62
2022-08-18T12:07:33.349Z,27.66
2022-08-18T12:11:43.465Z,27.71
2022-08-18T12:12:51.770Z,27.74
2022-08-18T12:13:57.428Z,27.77
2022-08-18T12:15:23.768Z,27.80
2022-08-18T12:16:35.780Z,27.81
2022-08-18T12:17:37.781Z,27.84
2022-08-18T12:18:39.286Z,27.87
2022-08-18T12:19:43.659Z,27.88
2022-08-18T12:20:49.074Z,27.90
2022-08-18T12:21:56.173Z,27.92
2022-08-18T12:22:58.143Z,27.94
2022-08-18T12:23:59.661Z,27.96
2022-08-18T12:25:01.248Z,27.97
2022-08-18T12:26:02.768Z,27.97
2022-08-18T12:27:20.402Z,28.00
2022-08-18T12:28:28.351Z,28.01
2022-08-18T12:29:36.730Z,28.03
2022-08-18T12:30:45.512Z,28.02
2022-08-18T12:31:48.935Z,28.04
2022-08-18T12:33:00.818Z,28.06
2022-08-18T12:34:08.744Z,28.07
2022-08-18T12:35:15.087Z,28.09
2022-08-18T12:36:16.688Z,28.10
2022-08-18T12:37:57.841Z,28.13
2022-08-18T12:38:43.608Z,28.06
2022-08-18T12:39:45.187Z,28.13
2022-08-18T12:40:46.753Z,28.13
2022-08-18T12:41:48.318Z,28.15
2022-08-18T12:42:50.875Z,28.15
2022-08-18T12:43:58.801Z,28.17
2022-08-18T12:45:01.106Z,28.17
2022-08-18T12:46:03.348Z,28.18
2022-08-18T12:47:07.246Z,28.20
2022-08-18T12:48:09.286Z,28.21
2022-08-18T12:49:14.440Z,28.22
2022-08-18T12:50:16.371Z,28.23
2022-08-18T12:51:18.581Z,28.25
2022-08-18T12:52:26.384Z,28.27
2022-08-18T12:53:29.626Z,28.28
2022-08-18T12:54:41.327Z,28.29
2022-08-18T12:55:57.403Z,28.31
2022-08-18T12:56:58.924Z,28.34
2022-08-18T12:58:03.913Z,28.38
2022-08-18T12:59:05.846Z,28.39
2022-08-18T13:00:09.124Z,28.41
2022-08-18T13:01:17.855Z,28.44
2022-08-18T13:02:19.521Z,28.44
2022-08-18T13:03:22.435Z,28.47
2022-08-18T13:04:27.047Z,28.49
2022-08-18T13:05:29.681Z,28.51
2022-08-18T13:06:32.988Z,28.53
2022-08-18T13:07:35.816Z,28.56
2022-08-18T13:08:50.010Z,28.57
2022-08-18T13:09:54.305Z,28.59
2022-08-18T13:11:14.661Z,28.63
2022-08-18T13:12:17.251Z,28.65
2022-08-18T13:13:19.041Z,28.68
2022-08-18T13:14:21.133Z,28.70
2022-08-18T13:15:24.354Z,28.71
2022-08-18T13:16:38.798Z,28.71
2022-08-18T13:17:50.422Z,28.74
2022-08-18T13:18:56.750Z,28.76
2022-08-18T13:19:58.338Z,28.78
2022-08-18T13:21:00.197Z,28.80
2022-08-18T13:22:01.768Z,28.82
2022-08-18T13:23:04.990Z,28.83
2022-08-18T13:24:10.119Z,28.85
2022-08-18T13:25:28.680Z,28.87
2022-08-18T13:26:36.516Z,28.90
2022-08-18T13:27:38.642Z,28.91
2022-08-18T13:28:52.869Z,28.94
2022-08-18T13:29:58.837Z,28.96
2022-08-18T13:31:00.428Z,28.96
2022-08-18T13:32:04.776Z,28.99
2022-08-18T13:33:53.564Z,29.02
2022-08-18T13:34:31.187Z,29.03
2022-08-18T13:35:38.098Z,29.05
2022-08-18T13:36:47.833Z,29.06
2022-08-18T13:37:49.529Z,29.09
2022-08-18T13:38:54.541Z,29.10
2022-08-18T13:39:56.342Z,29.12
2022-08-18T13:40:59.282Z,29.13
2022-08-18T13:42:01.427Z,29.15
2022-08-18T13:43:26.007Z,29.15
2022-08-18T13:44:29.109Z,29.17
2022-08-18T13:45:30.631Z,29.19
2022-08-18T13:46:34.444Z,29.19
2022-08-18T13:47:38.043Z,29.19
2022-08-18T13:48:41.717Z,29.20
2022-08-18T13:49:43.441Z,29.19
2022-08-18T13:51:01.223Z,29.21
2022-08-18T13:52:05.555Z,29.22
2022-08-18T13:53:14.620Z,29.21
2022-08-18T13:54:31.265Z,29.21
2022-08-18T13:55:33.316Z,29.23
2022-08-18T13:56:36.766Z,29.23
2022-08-18T13:57:41.958Z,29.24
2022-08-18T13:58:53.167Z,29.24
2022-08-18T13:59:55.174Z,29.23
2022-08-18T14:02:26.818Z,29.26
2022-08-18T14:03:30.955Z,29.25
2022-08-18T14:04:44.913Z,29.25
2022-08-18T14:06:01.047Z,29.24
2022-08-18T14:07:08.892Z,29.26
2022-08-18T14:08:12.472Z,29.27
2022-08-18T14:09:36.348Z,29.27
2022-08-18T14:10:39.244Z,29.28
2022-08-18T14:11:41.828Z,29.29
2022-08-18T14:12:43.464Z,29.31
2022-08-18T14:13:45.007Z,29.31
2022-08-18T14:14:46.619Z,29.32
2022-08-18T14:15:53.093Z,29.33
2022-08-18T14:16:55.263Z,29.35
2022-08-18T14:17:58.914Z,29.36
2022-08-18T14:19:26.800Z,29.36
2022-08-18T14:20:49.123Z,29.37
2022-08-18T14:22:11.854Z,29.42
2022-08-18T14:23:53.230Z,29.43
2022-08-18T14:25:13.749Z,29.46
2022-08-18T14:26:33.676Z,29.47
2022-08-18T14:27:36.177Z,29.48
2022-08-18T14:28:38.236Z,29.50
2022-08-18T14:29:46.248Z,29.52
2022-08-18T14:30:54.240Z,29.55
2022-08-18T14:31:56.255Z,29.58
2022-08-18T14:32:58.315Z,29.61
2022-08-18T14:34:03.871Z,29.63
2022-08-18T14:35:31.779Z,29.66
2022-08-18T14:36:29.861Z,29.68
2022-08-18T14:37:32.110Z,29.71
2022-08-18T14:38:36.530Z,29.72
2022-08-18T14:39:39.907Z,29.72
2022-08-18T14:40:43.137Z,29.73
2022-08-18T14:41:54.619Z,29.74
2022-08-18T14:42:58.059Z,29.76
2022-08-18T14:44:13.210Z,29.76
2022-08-18T14:45:26.560Z,29.78
2022-08-18T14:46:33.126Z,29.80